Time;durP1;ratioP1;P1;durP2;ratioP2;P2;SDS_P1;SDS_P2;PMS_P1;PMS_P2;Temp;Humidity;BMP_temperature;BMP_pressure;BME280_temperature;BME280_humidity;BME280_pressure;Samples;Min_cycle;Max_cycle;Signal;HPM_P1;HPM_P2
2021/08/21 00:02:06;;;;;;;8.73;5.45;;;14.60;98.00;;;;;;5025223;28;20026;-71
2021/08/21 00:04:32;;;;;;;9.20;5.45;;;14.50;98.00;;;;;;5037896;28;20025;-71
2021/08/21 00:06:58;;;;;;;10.70;5.25;;;14.40;98.00;;;;;;5037096;28;20052;-71
2021/08/21 00:09:25;;;;;;;9.38;5.30;;;14.30;98.00;;;;;;5036663;28;20021;-71
2021/08/21 00:11:50;;;;;;;8.60;5.72;;;14.30;98.00;;;;;;5027512;28;20041;-72
2021/08/21 00:14:16;;;;;;;11.18;5.45;;;14.30;98.00;;;;;;5018670;28;20101;-71
2021/08/21 00:16:42;;;;;;;9.40;5.25;;;14.30;98.00;;;;;;5027249;28;20034;-72
2021/08/21 00:19:07;;;;;;;7.80;4.97;;;14.30;98.00;;;;;;5019826;28;20068;-71
2021/08/21 00:21:33;;;;;;;7.38;5.00;;;14.20;98.00;;;;;;5031251;28;20425;-71
2021/08/21 00:23:59;;;;;;;8.00;5.03;;;14.20;98.00;;;;;;5027422;28;20057;-71
2021/08/21 00:26:25;;;;;;;8.18;4.78;;;14.10;98.00;;;;;;5031699;28;20322;-71
2021/08/21 00:28:51;;;;;;;11.25;5.50;;;14.00;98.00;;;;;;5026716;28;20029;-71
2021/08/21 00:31:16;;;;;;;11.20;5.75;;;14.00;98.00;;;;;;5038466;28;20029;-71
2021/08/21 00:33:42;;;;;;;8.25;4.82;;;13.90;98.00;;;;;;5025934;28;20030;-72
2021/08/21 00:36:08;;;;;;;9.02;5.25;;;13.80;98.00;;;;;;5025115;28;20064;-72
2021/08/21 00:38:33;;;;;;;9.02;5.28;;;13.80;98.00;;;;;;5018604;28;20071;-72
2021/08/21 00:40:59;;;;;;;8.43;5.60;;;13.70;98.00;;;;;;5022047;28;20458;-72
2021/08/21 00:43:27;;;;;;;9.25;5.40;;;13.80;98.00;;;;;;5027359;28;20760;-72
2021/08/21 00:45:53;;;;;;;8.55;5.55;;;13.80;98.00;;;;;;5025276;28;20018;-72
2021/08/21 00:48:19;;;;;;;8.45;5.40;;;13.70;98.00;;;;;;5030760;28;20028;-71
2021/08/21 00:50:45;;;;;;;10.57;5.55;;;13.70;98.00;;;;;;5030903;28;20314;-72
2021/08/21 00:53:10;;;;;;;7.70;4.82;;;13.60;98.00;;;;;;5035145;28;20021;-73
2021/08/21 00:55:37;;;;;;;7.45;5.15;;;13.50;98.00;;;;;;5021778;28;20544;-72
2021/08/21 00:58:03;;;;;;;9.27;5.60;;;13.50;98.00;;;;;;5018218;28;20038;-71
2021/08/21 01:00:28;;;;;;;8.68;5.00;;;13.50;98.00;;;;;;5032537;28;20030;-71
2021/08/21 01:02:54;;;;;;;9.18;4.78;;;13.50;98.00;;;;;;5029924;28;20048;-71
2021/08/21 01:05:20;;;;;;;8.98;5.22;;;13.50;98.00;;;;;;5017021;28;20026;-72
2021/08/21 01:07:46;;;;;;;9.85;5.18;;;13.40;98.00;;;;;;5019617;28;20092;-71
2021/08/21 01:10:19;;;;;;;10.02;5.38;;;13.40;98.00;;;;;;5017771;28;20433;-71
2021/08/21 01:12:49;;;;;;;8.77;5.25;;;13.40;98.00;;;;;;5021438;28;20449;-71
2021/08/21 01:15:14;;;;;;;9.18;5.45;;;13.30;98.00;;;;;;5018024;28;20022;-71
2021/08/21 01:17:43;;;;;;;9.50;5.65;;;13.30;98.00;;;;;;5031966;28;20460;-71
2021/08/21 01:20:12;;;;;;;9.25;5.55;;;13.80;98.00;;;;;;5016495;28;20115;-70
2021/08/21 01:22:38;;;;;;;8.35;4.70;;;14.00;98.00;;;;;;5020278;28;20099;-73
2021/08/21 01:25:12;;;;;;;8.25;5.60;;;14.10;98.00;;;;;;5016783;28;20453;-73
2021/08/21 01:27:38;;;;;;;8.93;4.80;;;14.10;98.00;;;;;;5031738;28;20025;-73
2021/08/21 01:30:04;;;;;;;8.60;5.32;;;14.20;98.00;;;;;;5033696;28;20075;-72
2021/08/21 01:32:30;;;;;;;11.52;5.53;;;14.30;98.00;;;;;;5029693;28;20033;-72
2021/08/21 01:34:56;;;;;;;11.68;6.03;;;14.50;98.00;;;;;;5029644;28;20025;-72
2021/08/21 01:37:24;;;;;;;10.52;5.22;;;14.80;98.00;;;;;;5027112;28;20132;-73
2021/08/21 01:39:51;;;;;;;7.35;4.90;;;15.00;97.20;;;;;;5021188;28;20034;-72
2021/08/21 01:42:18;;;;;;;14.05;4.60;;;15.00;97.10;;;;;;5019828;28;20038;-72
2021/08/21 01:44:46;;;;;;;9.57;5.07;;;14.90;97.20;;;;;;5029496;28;20426;-72
2021/08/21 01:47:15;;;;;;;8.48;4.95;;;14.80;97.40;;;;;;5036261;28;20379;-72
2021/08/21 01:49:51;;;;;;;9.10;5.28;;;14.70;97.70;;;;;;5026346;28;20110;-72
2021/08/21 01:52:17;;;;;;;8.15;4.93;;;14.40;98.00;;;;;;5017028;28;20033;-72
2021/08/21 01:54:43;;;;;;;11.13;5.10;;;14.20;98.00;;;;;;5025777;28;20025;-72
2021/08/21 01:57:08;;;;;;;8.82;4.90;;;14.00;98.00;;;;;;5034763;28;20025;-72
2021/08/21 01:59:45;;;;;;;8.50;4.93;;;13.80;98.00;;;;;;5030266;28;20112;-72
2021/08/21 02:02:17;;;;;;;9.02;5.43;;;13.80;98.00;;;;;;5022090;28;20033;-72
2021/08/21 02:04:43;;;;;;;7.40;4.93;;;13.70;98.00;;;;;;5027210;28;20096;-72
2021/08/21 02:07:09;;;;;;;9.15;4.88;;;13.50;98.00;;;;;;5036457;28;20108;-72
2021/08/21 02:09:36;;;;;;;8.98;4.78;;;13.40;98.00;;;;;;5026621;28;20422;-72
2021/08/21 02:12:04;;;;;;;8.32;5.20;;;13.40;98.00;;;;;;5030491;28;20028;-72
2021/08/21 02:14:30;;;;;;;9.63;5.57;;;13.40;98.00;;;;;;5036041;28;20056;-72
2021/08/21 02:16:59;;;;;;;9.82;4.93;;;13.40;98.00;;;;;;5032071;28;20052;-72
2021/08/21 02:19:25;;;;;;;8.70;4.55;;;13.30;98.00;;;;;;5016520;28;20101;-72
2021/08/21 02:21:53;;;;;;;8.02;5.18;;;13.30;98.00;;;;;;5017851;28;20108;-72
2021/08/21 02:24:26;;;;;;;8.10;5.18;;;13.30;98.00;;;;;;5034906;28;20299;-72
2021/08/21 02:26:58;;;;;;;9.70;5.78;;;13.40;98.00;;;;;;5032493;28;20025;-72
2021/08/21 02:29:25;;;;;;;14.32;6.05;;;13.60;98.00;;;;;;5027339;28;20036;-72
2021/08/21 02:31:51;;;;;;;9.93;5.57;;;13.70;98.00;;;;;;5034069;28;20025;-72
2021/08/21 02:34:16;;;;;;;8.63;5.63;;;13.80;98.00;;;;;;5035796;28;20032;-72
2021/08/21 02:36:44;;;;;;;8.40;5.18;;;13.80;98.00;;;;;;5028989;28;20035;-72
2021/08/21 02:39:10;;;;;;;9.10;5.47;;;13.90;98.00;;;;;;5035711;28;20045;-72
2021/08/21 02:41:36;;;;;;;10.75;6.07;;;13.80;98.00;;;;;;5019828;28;20430;-72
2021/08/21 02:44:01;;;;;;;8.07;5.68;;;13.90;98.00;;;;;;5030248;28;20061;-72
2021/08/21 02:46:27;;;;;;;9.00;5.35;;;14.00;98.00;;;;;;5035381;28;20034;-72
2021/08/21 02:48:53;;;;;;;10.48;5.30;;;14.00;98.00;;;;;;5036027;28;20027;-72
2021/08/21 02:51:19;;;;;;;7.95;5.68;;;13.90;98.00;;;;;;5034073;28;20093;-72
2021/08/21 02:53:44;;;;;;;9.13;5.47;;;13.90;98.00;;;;;;5035468;28;20057;-72
2021/08/21 02:56:10;;;;;;;8.63;5.40;;;13.90;98.00;;;;;;5026985;28;20048;-72
2021/08/21 02:58:36;;;;;;;13.25;6.55;;;13.80;98.00;;;;;;5035499;28;20486;-72
2021/08/21 03:01:01;;;;;;;9.00;6.03;;;13.70;98.00;;;;;;5033628;28;20060;-72
2021/08/21 03:03:27;;;;;;;9.27;5.35;;;13.90;98.00;;;;;;5017589;28;20095;-72
2021/08/21 03:05:56;;;;;;;9.20;5.35;;;14.00;98.00;;;;;;5018868;28;20030;-72
2021/08/21 03:08:22;;;;;;;8.80;5.18;;;14.00;98.00;;;;;;5035272;28;20039;-72
2021/08/21 03:10:48;;;;;;;9.50;5.30;;;14.20;98.00;;;;;;5034645;28;20469;-72
2021/08/21 03:13:13;;;;;;;7.90;5.20;;;14.30;98.00;;;;;;5034550;28;20022;-72
2021/08/21 03:15:40;;;;;;;8.73;5.03;;;14.40;98.00;;;;;;5028948;28;20025;-72
2021/08/21 03:18:06;;;;;;;11.93;5.80;;;14.40;98.00;;;;;;5028194;28;20026;-72
2021/08/21 03:20:32;;;;;;;11.68;5.85;;;14.30;98.00;;;;;;5034585;28;20084;-72
2021/08/21 03:22:57;;;;;;;8.40;5.38;;;14.30;98.00;;;;;;5032000;28;20041;-72
2021/08/21 03:25:23;;;;;;;12.98;5.80;;;14.30;98.00;;;;;;5034889;28;20033;-72
2021/08/21 03:27:49;;;;;;;8.07;5.18;;;14.20;98.00;;;;;;5024426;28;20030;-72
2021/08/21 03:30:15;;;;;;;13.10;5.35;;;14.20;98.00;;;;;;5032014;28;20104;-72
2021/08/21 03:32:41;;;;;;;9.05;4.78;;;14.20;98.00;;;;;;5029689;28;20053;-72
2021/08/21 03:35:07;;;;;;;9.43;6.18;;;14.30;98.00;;;;;;5015723;28;20394;-72
2021/08/21 03:37:33;;;;;;;7.32;4.60;;;14.30;98.00;;;;;;5028105;28;20063;-72
2021/08/21 03:39:59;;;;;;;8.60;5.38;;;14.20;98.00;;;;;;5035818;28;20036;-72
2021/08/21 03:42:24;;;;;;;7.22;5.00;;;14.20;98.00;;;;;;5029325;28;20280;-72
2021/08/21 03:44:50;;;;;;;10.40;5.88;;;14.10;98.00;;;;;;5019337;28;20033;-72
2021/08/21 03:47:16;;;;;;;9.63;5.18;;;14.20;98.00;;;;;;5030292;28;20419;-72
2021/08/21 03:49:41;;;;;;;8.73;5.22;;;14.20;98.00;;;;;;5019326;28;20104;-72
2021/08/21 03:52:07;;;;;;;9.77;6.13;;;14.10;98.00;;;;;;5023802;28;20310;-72
2021/08/21 03:54:33;;;;;;;10.30;5.60;;;14.00;98.00;;;;;;5038262;28;20029;-72
2021/08/21 03:56:58;;;;;;;9.50;5.85;;;13.90;98.00;;;;;;5033668;28;20026;-72
2021/08/21 03:59:24;;;;;;;10.02;5.47;;;13.80;98.00;;;;;;5031284;28;20041;-72
2021/08/21 04:01:52;;;;;;;12.35;7.00;;;13.70;98.00;;;;;;5035306;28;20029;-72
2021/08/21 04:04:21;;;;;;;9.55;5.43;;;13.70;98.00;;;;;;5030025;28;20045;-73
2021/08/21 04:06:47;;;;;;;9.55;5.82;;;13.60;98.00;;;;;;5035091;28;20097;-71
2021/08/21 04:09:13;;;;;;;24.50;6.15;;;13.60;98.00;;;;;;5038751;28;20037;-71
2021/08/21 04:11:41;;;;;;;8.60;5.85;;;13.50;98.00;;;;;;5037561;28;20018;-71
2021/08/21 04:14:07;;;;;;;11.73;6.75;;;13.40;98.00;;;;;;5024059;28;20028;-71
2021/08/21 04:16:32;;;;;;;9.52;6.45;;;13.30;98.00;;;;;;5038253;28;20025;-72
2021/08/21 04:18:58;;;;;;;11.73;6.55;;;13.20;98.00;;;;;;5021029;28;20113;-73
2021/08/21 04:21:24;;;;;;;9.77;5.30;;;13.10;98.00;;;;;;5018610;28;20037;-73
2021/08/21 04:23:53;;;;;;;11.88;5.93;;;13.00;98.00;;;;;;5025502;28;20144;-72
2021/08/21 04:26:21;;;;;;;9.27;5.60;;;13.00;98.00;;;;;;5034625;28;20053;-72
2021/08/21 04:28:47;;;;;;;9.45;6.03;;;13.00;98.00;;;;;;5037792;28;20021;-72
2021/08/21 04:31:13;;;;;;;14.13;6.95;;;13.00;98.00;;;;;;5036074;28;20052;-73
2021/08/21 04:33:38;;;;;;;10.98;5.78;;;13.10;98.00;;;;;;5018494;28;20033;-73
2021/08/21 04:36:04;;;;;;;10.13;6.63;;;13.10;98.00;;;;;;5025493;28;20037;-73
2021/08/21 04:38:32;;;;;;;21.90;6.03;;;13.20;98.00;;;;;;5037520;28;20033;-73
2021/08/21 04:40:58;;;;;;;8.27;5.60;;;13.30;98.00;;;;;;5030718;28;20030;-73
2021/08/21 04:43:23;;;;;;;14.57;6.07;;;13.20;98.00;;;;;;5044948;28;20048;-73
2021/08/21 04:45:49;;;;;;;9.00;6.13;;;13.20;98.00;;;;;;5047109;28;20032;-73
2021/08/21 04:48:14;;;;;;;10.45;6.10;;;13.20;98.00;;;;;;5037484;28;20036;-73
2021/08/21 04:50:43;;;;;;;10.20;6.82;;;13.20;98.00;;;;;;5035781;28;20470;-73
2021/08/21 04:53:09;;;;;;;10.32;6.05;;;13.20;98.00;;;;;;5017963;28;20034;-73
2021/08/21 04:55:34;;;;;;;9.65;5.75;;;13.20;98.00;;;;;;5017942;28;20073;-73
2021/08/21 04:58:01;;;;;;;9.20;5.60;;;13.30;98.00;;;;;;5037463;28;20040;-73
2021/08/21 05:00:28;;;;;;;8.88;5.60;;;13.30;98.00;;;;;;5035771;28;20417;-72
2021/08/21 05:02:57;;;;;;;12.38;6.30;;;13.40;98.00;;;;;;5025316;28;20033;-72
2021/08/21 05:05:24;;;;;;;8.80;5.85;;;13.50;98.00;;;;;;5036459;28;20465;-73
2021/08/21 05:07:52;;;;;;;9.93;6.15;;;13.60;98.00;;;;;;5087264;23;20221;-73
2021/08/21 05:10:22;;;;;;;10.57;6.50;;;13.70;98.00;;;;;;5077704;28;20043;-73
2021/08/21 05:12:48;;;;;;;13.57;6.45;;;13.80;98.00;;;;;;5076019;28;20028;-73
2021/08/21 05:15:14;;;;;;;9.10;5.40;;;14.00;98.00;;;;;;5076185;28;20413;-73
2021/08/21 05:17:40;;;;;;;10.32;6.15;;;14.10;98.00;;;;;;5076917;28;20029;-73
2021/08/21 05:20:14;;;;;;;8.18;5.20;;;14.20;98.00;;;;;;5077161;28;20032;-73
2021/08/21 05:23:02;;;;;;;10.18;5.43;;;14.30;98.00;;;;;;5077339;28;20442;-73
2021/08/21 05:25:26;;;;;;;9.32;5.00;;;14.40;98.00;;;;;;5076202;28;20063;-73
2021/08/21 05:27:51;;;;;;;9.13;5.50;;;14.40;98.00;;;;;;5075897;28;20048;-73
2021/08/21 05:30:17;;;;;;;8.13;4.97;;;14.40;98.00;;;;;;5076849;28;20055;-73
2021/08/21 05:32:43;;;;;;;9.18;5.13;;;14.40;98.00;;;;;;5076290;28;20059;-73
2021/08/21 05:35:09;;;;;;;10.20;6.00;;;14.50;98.00;;;;;;5075740;28;20021;-73
2021/08/21 05:37:34;;;;;;;10.43;5.63;;;14.50;98.00;;;;;;5076450;28;20027;-73
2021/08/21 05:40:00;;;;;;;8.63;5.28;;;14.60;98.00;;;;;;5075931;28;20020;-73
2021/08/21 05:42:29;;;;;;;10.18;5.35;;;14.70;98.00;;;;;;5074791;28;20024;-73
2021/08/21 05:44:54;;;;;;;10.80;5.20;;;14.80;98.00;;;;;;5076738;28;20029;-73
2021/08/21 05:47:20;;;;;;;9.82;5.03;;;14.80;98.00;;;;;;5075207;28;20328;-73
2021/08/21 05:49:45;;;;;;;10.65;5.03;;;14.80;98.00;;;;;;5076259;28;20016;-73
2021/08/21 05:52:11;;;;;;;8.45;5.25;;;14.80;98.00;;;;;;5076812;28;20024;-73
2021/08/21 05:54:37;;;;;;;9.27;5.13;;;14.80;98.00;;;;;;5076159;28;20020;-73
2021/08/21 05:57:02;;;;;;;8.48;5.68;;;14.90;98.00;;;;;;5075099;28;20052;-73
2021/08/21 05:59:31;;;;;;;8.57;4.65;;;14.80;98.00;;;;;;5075833;28;20121;-73
2021/08/21 06:02:00;;;;;;;8.43;5.50;;;14.80;98.00;;;;;;5076000;28;20021;-73
2021/08/21 06:04:26;;;;;;;9.20;5.53;;;14.90;98.00;;;;;;5076093;28;20032;-73
2021/08/21 06:06:51;;;;;;;10.02;5.30;;;14.90;98.00;;;;;;5075612;28;20041;-73
2021/08/21 06:09:20;;;;;;;8.35;5.38;;;14.90;98.00;;;;;;5076038;28;20103;-73
2021/08/21 06:11:46;;;;;;;8.57;5.18;;;15.00;98.00;;;;;;5074747;28;20025;-73
2021/08/21 06:14:12;;;;;;;9.18;5.55;;;15.20;98.00;;;;;;5075890;28;20027;-73
2021/08/21 06:16:37;;;;;;;10.20;5.40;;;15.30;98.00;;;;;;5075012;28;20104;-73
2021/08/21 06:19:03;;;;;;;8.75;5.50;;;15.40;98.00;;;;;;5075938;28;20108;-72
2021/08/21 06:21:29;;;;;;;8.57;5.95;;;15.50;98.00;;;;;;5075709;28;20313;-73
2021/08/21 06:23:57;;;;;;;9.85;5.63;;;15.80;98.00;;;;;;5075870;28;20025;-72
2021/08/21 06:26:23;;;;;;;11.02;5.55;;;16.10;98.00;;;;;;5073905;28;21445;-72
2021/08/21 06:28:48;;;;;;;9.55;5.85;;;16.30;97.60;;;;;;5075982;28;20034;-73
2021/08/21 06:31:14;;;;;;;10.93;5.78;;;16.40;97.40;;;;;;5075476;28;20099;-72
2021/08/21 06:33:40;;;;;;;10.90;5.70;;;16.50;97.10;;;;;;5075538;28;20025;-72
2021/08/21 06:36:05;;;;;;;11.07;6.32;;;16.60;97.00;;;;;;5075945;28;20074;-72
2021/08/21 06:38:32;;;;;;;11.00;5.88;;;16.80;96.70;;;;;;5074660;28;20373;-72
2021/08/21 06:40:58;;;;;;;8.52;5.90;;;16.90;96.40;;;;;;5073727;28;20321;-71
2021/08/21 06:43:24;;;;;;;9.02;5.25;;;17.00;96.20;;;;;;5075682;28;20086;-71
2021/08/21 06:45:49;;;;;;;10.15;5.80;;;17.20;95.70;;;;;;5073850;28;20393;-71
2021/08/21 06:48:15;;;;;;;9.27;5.22;;;17.40;95.40;;;;;;5075343;28;20108;-72
2021/08/21 06:50:41;;;;;;;9.27;5.47;;;17.40;95.10;;;;;;5075642;28;20413;-72
2021/08/21 06:53:06;;;;;;;10.98;5.82;;;17.40;95.40;;;;;;5075444;28;20021;-72
2021/08/21 06:55:32;;;;;;;8.68;5.50;;;17.10;95.60;;;;;;5069659;28;20028;-72
2021/08/21 06:57:58;;;;;;;9.23;4.82;;;17.20;96.00;;;;;;5073399;28;20036;-72
2021/08/21 07:00:23;;;;;;;9.45;5.07;;;17.30;96.00;;;;;;5075143;28;20456;-72
2021/08/21 07:02:49;;;;;;;9.57;5.68;;;17.50;95.50;;;;;;5074556;28;20037;-71
2021/08/21 07:05:15;;;;;;;10.02;5.68;;;17.70;95.10;;;;;;5075569;28;20417;-72
2021/08/21 07:07:40;;;;;;;8.73;5.45;;;17.70;94.70;;;;;;5075498;28;20046;-72
2021/08/21 07:10:07;;;;;;;10.05;5.85;;;17.90;94.70;;;;;;5074467;28;20412;-71
2021/08/21 07:12:32;;;;;;;8.65;5.72;;;18.10;94.60;;;;;;5078480;28;20028;-72
2021/08/21 07:14:58;;;;;;;11.18;6.03;;;18.30;94.20;;;;;;5078718;28;20020;-72
2021/08/21 07:17:24;;;;;;;9.35;5.60;;;18.50;93.90;;;;;;5075456;28;20048;-72
2021/08/21 07:19:50;;;;;;;9.52;5.75;;;18.60;93.60;;;;;;5078912;28;20324;-72
2021/08/21 07:22:16;;;;;;;11.68;5.70;;;18.80;93.50;;;;;;5079531;28;20074;-72
2021/08/21 07:24:41;;;;;;;13.85;5.30;;;19.10;93.10;;;;;;5078232;28;20119;-71
2021/08/21 07:27:07;;;;;;;8.45;5.28;;;19.30;92.40;;;;;;5074355;28;20025;-72
2021/08/21 07:29:36;;;;;;;8.55;4.93;;;19.40;92.30;;;;;;5075921;28;20024;-72
2021/08/21 07:32:02;;;;;;;8.85;5.45;;;19.50;92.10;;;;;;5075376;28;20032;-72
2021/08/21 07:34:28;;;;;;;8.25;5.15;;;19.50;92.10;;;;;;5074197;28;20028;-72
2021/08/21 07:36:53;;;;;;;8.93;4.97;;;19.50;91.70;;;;;;5075063;28;21288;-72
2021/08/21 07:39:19;;;;;;;11.32;5.43;;;19.60;91.60;;;;;;5075226;28;20040;-72
2021/08/21 07:41:45;;;;;;;10.68;4.63;;;19.70;91.60;;;;;;5072690;28;20108;-72
2021/08/21 07:44:11;;;;;;;8.63;5.28;;;19.80;92.00;;;;;;5074172;28;20029;-72
2021/08/21 07:46:37;;;;;;;8.23;4.75;;;19.90;91.90;;;;;;5074639;28;20086;-72
2021/08/21 07:49:03;;;;;;;6.57;4.10;;;20.10;91.60;;;;;;5073856;28;20024;-72
2021/08/21 07:51:29;;;;;;;11.13;5.10;;;20.20;91.90;;;;;;5076881;28;20032;-71
2021/08/21 07:53:54;;;;;;;12.32;4.28;;;20.50;91.00;;;;;;5074197;28;20028;-71
2021/08/21 07:56:20;;;;;;;8.98;4.50;;;21.00;90.20;;;;;;5073413;28;20111;-71
2021/08/21 07:58:45;;;;;;;6.78;3.97;;;22.00;87.70;;;;;;5074681;28;20077;-70
2021/08/21 08:01:11;;;;;;;7.53;3.88;;;23.30;84.70;;;;;;5074032;28;20031;-72
2021/08/21 08:03:37;;;;;;;6.97;3.97;;;24.60;80.90;;;;;;5075549;28;20031;-72
2021/08/21 08:06:02;;;;;;;7.65;3.47;;;25.60;77.30;;;;;;5074162;28;20154;-72
2021/08/21 08:08:28;;;;;;;5.80;3.53;;;26.10;76.30;;;;;;5073879;28;20025;-73
2021/08/21 08:10:54;;;;;;;7.63;3.50;;;26.50;75.20;;;;;;5072149;28;20024;-72
2021/08/21 08:13:19;;;;;;;6.03;3.30;;;27.10;73.70;;;;;;5073390;28;20035;-72
2021/08/21 08:15:45;;;;;;;5.93;3.67;;;27.30;72.30;;;;;;5074924;28;20036;-71
2021/08/21 08:18:11;;;;;;;7.75;3.40;;;27.50;72.10;;;;;;5073194;28;20318;-74
2021/08/21 08:20:37;;;;;;;8.45;3.63;;;27.60;71.70;;;;;;5074552;28;20036;-72
2021/08/21 08:23:06;;;;;;;9.15;3.90;;;27.60;72.10;;;;;;5077424;28;20078;-72
2021/08/21 08:25:32;;;;;;;6.70;3.83;;;28.10;71.20;;;;;;5077875;28;20432;-72
2021/08/21 08:27:58;;;;;;;6.65;3.70;;;28.60;69.20;;;;;;5074413;28;20032;-71
2021/08/21 08:30:23;;;;;;;6.15;3.30;;;29.10;68.30;;;;;;5074907;28;20024;-72
2021/08/21 08:32:49;;;;;;;6.10;3.47;;;29.10;68.60;;;;;;5072738;28;20108;-70
2021/08/21 08:35:14;;;;;;;6.88;3.30;;;29.10;68.40;;;;;;5072715;28;20298;-75
2021/08/21 08:37:41;;;;;;;5.75;3.35;;;29.00;69.70;;;;;;5073795;28;20029;-75
2021/08/21 08:40:10;;;;;;;5.65;3.42;;;28.90;70.20;;;;;;5072424;28;20026;-74
2021/08/21 08:42:40;;;;;;;5.28;3.47;;;28.80;71.50;;;;;;5070100;28;20040;-74
2021/08/21 08:45:07;;;;;;;6.82;3.53;;;28.90;72.40;;;;;;5072100;28;20135;-74
2021/08/21 08:47:35;;;;;;;5.65;3.28;;;29.10;70.60;;;;;;5072663;28;20656;-75
2021/08/21 08:50:04;;;;;;;6.00;3.47;;;28.80;71.20;;;;;;5072108;28;20020;-75
2021/08/21 08:52:30;;;;;;;7.10;3.63;;;28.80;71.10;;;;;;5073430;28;20021;-74
2021/08/21 08:54:56;;;;;;;5.97;3.60;;;28.00;73.30;;;;;;5072431;28;20032;-74
2021/08/21 08:57:41;;;;;;;7.32;3.78;;;28.00;74.30;;;;;;5070687;28;20098;-74
2021/08/21 09:00:21;;;;;;;6.78;3.72;;;28.20;72.80;;;;;;5073067;28;20036;-74
2021/08/21 09:02:59;;;;;;;6.97;3.65;;;28.00;72.90;;;;;;5070971;28;20060;-74
2021/08/21 09:05:27;;;;;;;9.20;3.25;;;28.00;73.50;;;;;;5071781;28;20033;-74
2021/08/21 09:07:57;;;;;;;5.75;3.35;;;28.00;73.70;;;;;;5071218;28;20044;-73
2021/08/21 09:10:31;;;;;;;6.07;3.60;;;28.60;72.40;;;;;;5072488;28;20274;-73
2021/08/21 09:13:08;;;;;;;8.20;4.13;;;28.80;71.10;;;;;;5070943;28;20103;-73
2021/08/21 09:15:41;;;;;;;7.53;3.70;;;28.70;70.90;;;;;;5071049;28;20429;-73
2021/08/21 09:18:16;;;;;;;9.27;3.95;;;28.70;72.40;;;;;;5072661;28;20021;-73
2021/08/21 09:20:48;;;;;;;6.05;3.58;;;29.00;71.70;;;;;;5073151;28;20112;-73
2021/08/21 09:23:33;;;;;;;7.13;3.97;;;29.10;71.20;;;;;;5072488;28;20032;-73
2021/08/21 09:26:12;;;;;;;8.20;3.85;;;28.90;70.70;;;;;;5070662;28;20282;-72
2021/08/21 09:28:44;;;;;;;7.45;3.72;;;28.40;72.00;;;;;;5073971;28;20020;-72
2021/08/21 09:31:14;;;;;;;7.00;3.78;;;28.10;72.80;;;;;;5073948;28;20055;-72
2021/08/21 09:33:52;;;;;;;9.43;4.07;;;28.50;72.10;;;;;;5060068;28;20413;-73
2021/08/21 09:36:37;;;;;;;6.95;3.65;;;27.90;72.70;;;;;;5073810;28;20058;-72
2021/08/21 09:39:07;;;;;;;7.65;3.60;;;27.80;73.50;;;;;;5071222;28;20052;-72
2021/08/21 09:42:00;;;;;;;6.53;3.47;;;28.10;73.70;;;;;;5071123;28;20032;-73
2021/08/21 09:44:40;;;;;;;11.13;4.00;;;28.50;72.00;;;;;;5071260;28;20051;-72
2021/08/21 09:47:10;;;;;;;8.60;3.92;;;29.10;71.00;;;;;;5072415;28;20028;-72
2021/08/21 09:49:35;;;;;;;6.78;3.75;;;29.10;71.50;;;;;;5071603;28;21247;-72
2021/08/21 09:52:14;;;;;;;8.32;3.88;;;29.30;72.00;;;;;;5071835;28;20024;-71
2021/08/21 09:54:42;;;;;;;6.72;4.25;;;29.50;71.20;;;;;;5070783;28;20040;-72
2021/08/21 09:57:12;;;;;;;9.35;4.10;;;30.20;69.70;;;;;;5069428;28;20055;-72
2021/08/21 09:59:38;;;;;;;9.30;4.35;;;29.70;70.40;;;;;;5069880;28;20032;-72
2021/08/21 10:02:11;;;;;;;5.75;3.40;;;29.70;71.20;;;;;;5069726;28;20048;-71
2021/08/21 10:04:39;;;;;;;5.90;3.63;;;29.80;70.50;;;;;;5071234;28;20040;-72
2021/08/21 10:07:05;;;;;;;5.90;3.83;;;30.00;70.80;;;;;;5071223;28;20453;-72
2021/08/21 10:09:32;;;;;;;7.78;4.22;;;29.90;70.30;;;;;;5071841;28;20039;-72
2021/08/21 10:11:59;;;;;;;5.70;3.58;;;29.40;71.20;;;;;;5069833;28;20453;-73
2021/08/21 10:14:25;;;;;;;5.88;3.47;;;29.70;71.60;;;;;;5071426;28;20038;-71
2021/08/21 10:16:50;;;;;;;5.97;3.95;;;30.40;70.10;;;;;;5072655;28;20082;-71
2021/08/21 10:19:22;;;;;;;6.63;3.80;;;31.40;68.00;;;;;;5070161;28;20036;-71
2021/08/21 10:21:57;;;;;;;6.50;4.03;;;31.20;68.70;;;;;;5070742;28;20111;-71
2021/08/21 10:24:28;;;;;;;6.53;3.58;;;31.10;68.50;;;;;;5069870;28;20036;-71
2021/08/21 10:27:02;;;;;;;10.88;3.95;;;31.30;67.80;;;;;;5069619;28;20020;-71
2021/08/21 10:29:27;;;;;;;6.03;3.67;;;31.20;68.20;;;;;;5070770;28;20028;-72
2021/08/21 10:31:55;;;;;;;6.00;3.60;;;31.60;67.20;;;;;;5074286;28;20036;-71
2021/08/21 10:34:20;;;;;;;6.82;3.90;;;31.90;67.20;;;;;;5074473;28;20024;-71
2021/08/21 10:36:52;;;;;;;6.63;3.65;;;32.00;65.90;;;;;;5074105;28;20032;-71
2021/08/21 10:39:35;;;;;;;7.70;4.10;;;31.60;66.30;;;;;;5073571;28;20317;-71
2021/08/21 10:42:26;;;;;;;6.70;3.93;;;30.90;68.40;;;;;;5073278;28;20360;-72
2021/08/21 10:44:53;;;;;;;7.13;4.25;;;30.50;69.00;;;;;;5074717;28;20501;-71
2021/08/21 10:47:34;;;;;;;7.72;4.10;;;30.40;69.70;;;;;;5073647;28;20451;-71
2021/08/21 10:50:17;;;;;;;6.97;3.92;;;30.30;70.20;;;;;;5073166;28;20051;-71
2021/08/21 10:53:01;;;;;;;6.47;3.97;;;31.00;68.80;;;;;;5077530;28;20348;-71
2021/08/21 10:55:28;;;;;;;7.07;4.15;;;31.40;67.90;;;;;;5074626;28;20043;-73
2021/08/21 10:58:01;;;;;;;7.82;4.25;;;31.20;67.40;;;;;;5071991;28;20429;-72
2021/08/21 11:00:39;;;;;;;6.47;3.88;;;30.80;68.30;;;;;;5075239;28;20450;-72
2021/08/21 11:03:13;;;;;;;8.45;4.10;;;31.00;68.00;;;;;;5075294;28;20025;-72
2021/08/21 11:06:11;;;;;;;6.88;4.00;;;31.60;66.60;;;;;;5075246;28;20429;-73
2021/08/21 11:08:40;;;;;;;6.80;4.15;;;32.20;64.50;;;;;;5071143;28;20040;-72
2021/08/21 11:11:17;;;;;;;7.28;4.28;;;32.80;64.00;;;;;;5073741;28;20313;-72
2021/08/21 11:13:46;;;;;;;7.95;4.63;;;32.00;64.70;;;;;;5078177;28;20417;-72
2021/08/21 11:16:12;;;;;;;8.98;4.20;;;31.30;64.70;;;;;;5083143;28;20029;-72
2021/08/21 11:18:49;;;;;;;6.57;4.03;;;30.30;67.60;;;;;;5075182;28;20021;-72
2021/08/21 11:21:31;;;;;;;7.80;4.03;;;29.90;69.60;;;;;;5064136;28;20029;-72
2021/08/21 11:23:56;;;;;;;5.93;3.70;;;30.20;67.40;;;;;;5075015;28;20313;-72
2021/08/21 11:26:23;;;;;;;7.95;4.20;;;30.40;68.10;;;;;;5073783;28;20040;-72
2021/08/21 11:29:09;;;;;;;6.50;4.18;;;31.00;67.40;;;;;;5073772;28;20023;-72
2021/08/21 11:32:00;;;;;;;8.10;4.30;;;31.30;65.50;;;;;;5071865;28;20111;-72
2021/08/21 11:34:34;;;;;;;6.90;4.18;;;31.40;64.80;;;;;;5072957;28;20408;-72
2021/08/21 11:37:05;;;;;;;10.23;3.88;;;32.10;64.00;;;;;;5080576;28;20058;-72
2021/08/21 11:39:30;;;;;;;6.00;3.85;;;32.50;63.40;;;;;;5094997;28;20329;-72
2021/08/21 11:41:56;;;;;;;6.72;4.20;;;32.30;62.40;;;;;;5079451;28;20152;-71
2021/08/21 11:44:32;;;;;;;7.53;4.05;;;32.60;60.60;;;;;;5079197;28;20111;-72
2021/08/21 11:47:09;;;;;;;5.72;3.40;;;32.80;59.50;;;;;;5082930;28;20025;-72
2021/08/21 11:49:37;;;;;;;6.60;3.58;;;32.80;59.10;;;;;;5070138;28;20414;-72
2021/08/21 11:52:04;;;;;;;6.10;3.33;;;32.70;59.00;;;;;;5059615;28;20112;-72
2021/08/21 11:54:30;;;;;;;6.45;3.58;;;32.00;61.00;;;;;;5061576;28;20020;-72
2021/08/21 11:56:57;;;;;;;7.60;3.88;;;32.40;60.40;;;;;;5086246;28;20116;-72
2021/08/21 11:59:23;;;;;;;6.68;4.40;;;31.50;61.30;;;;;;5086637;28;20025;-71
2021/08/21 12:02:10;;;;;;;11.23;4.25;;;30.90;62.10;;;;;;5092794;28;20089;-72
2021/08/21 12:04:36;;;;;;;6.60;3.88;;;30.20;63.80;;;;;;5088254;28;20448;-72
2021/08/21 12:07:02;;;;;;;7.07;4.18;;;30.10;62.70;;;;;;5087516;28;20040;-72
2021/08/21 12:09:28;;;;;;;11.68;4.10;;;29.80;63.50;;;;;;5078767;28;20063;-72
2021/08/21 12:11:55;;;;;;;8.30;4.25;;;29.70;64.30;;;;;;5077314;28;20028;-72
2021/08/21 12:14:23;;;;;;;8.05;3.80;;;30.00;64.10;;;;;;5078084;28;20043;-72
2021/08/21 12:16:53;;;;;;;7.72;4.10;;;30.00;64.80;;;;;;5087143;28;20470;-72
2021/08/21 12:19:21;;;;;;;8.43;4.28;;;30.10;64.10;;;;;;5083462;28;20032;-72
2021/08/21 12:21:48;;;;;;;6.80;4.10;;;29.90;62.70;;;;;;5074071;28;20033;-72
2021/08/21 12:24:14;;;;;;;5.95;3.92;;;28.90;64.80;;;;;;5078243;28;20364;-72
2021/08/21 12:26:42;;;;;;;7.82;4.05;;;28.50;65.40;;;;;;5075903;28;20036;-72
2021/08/21 12:29:29;;;;;;;8.20;4.35;;;28.70;66.30;;;;;;5077685;28;20031;-72
2021/08/21 12:31:56;;;;;;;7.68;4.07;;;29.30;65.20;;;;;;5076939;28;20099;-72
2021/08/21 12:34:25;;;;;;;6.88;4.40;;;29.50;65.20;;;;;;5076189;28;20035;-72
2021/08/21 12:36:53;;;;;;;7.30;4.07;;;29.80;64.10;;;;;;5074244;28;20031;-72
2021/08/21 12:39:28;;;;;;;13.50;4.68;;;30.00;64.60;;;;;;5077998;28;20413;-72
2021/08/21 12:42:05;;;;;;;6.75;4.25;;;30.10;63.40;;;;;;5076736;28;20035;-72
2021/08/21 12:44:37;;;;;;;6.28;3.90;;;30.10;63.20;;;;;;5077963;28;20094;-72
2021/08/21 12:47:12;;;;;;;12.52;5.60;;;30.20;61.90;;;;;;5077708;28;20024;-72
2021/08/21 12:49:46;;;;;;;8.77;4.15;;;29.90;62.40;;;;;;5077855;28;20074;-72
2021/08/21 12:52:26;;;;;;;34.55;11.23;;;30.00;62.30;;;;;;5077721;28;20017;-72